createdAt,value
2019-05-15T00:00:38.444Z,5.11
2019-05-15T00:03:04.986Z,5.02
2019-05-15T00:05:31.760Z,5.01
2019-05-15T00:07:59.282Z,5.00
2019-05-15T00:10:26.165Z,4.98
2019-05-15T00:12:52.842Z,4.99
2019-05-15T00:15:19.634Z,4.95
2019-05-15T00:17:48.580Z,4.79
2019-05-15T00:20:15.214Z,4.66
2019-05-15T00:22:41.785Z,4.57
2019-05-15T00:25:09.348Z,4.46
2019-05-15T00:27:38.606Z,4.48
2019-05-15T00:30:05.902Z,4.45
2019-05-15T00:32:32.474Z,4.36
2019-05-15T00:34:59.367Z,4.33
2019-05-15T00:37:25.942Z,4.36
2019-05-15T00:39:52.640Z,4.42
2019-05-15T00:42:19.525Z,4.38
2019-05-15T00:44:46.351Z,4.37
2019-05-15T00:47:13.138Z,4.39
2019-05-15T00:49:39.816Z,4.37
2019-05-15T00:52:11.771Z,4.29
2019-05-15T00:54:35.392Z,4.23
2019-05-15T00:57:02.204Z,4.21
2019-05-15T00:59:29.947Z,4.18
2019-05-15T01:01:59.298Z,4.11
2019-05-15T01:04:27.961Z,4.09
2019-05-15T01:06:54.307Z,4.01
2019-05-15T01:09:23.584Z,3.90
2019-05-15T01:11:50.371Z,3.95
2019-05-15T01:14:18.617Z,3.86
2019-05-15T01:16:45.605Z,3.72
2019-05-15T01:19:14.990Z,3.63
2019-05-15T01:21:40.889Z,3.58
2019-05-15T01:24:08.435Z,3.43
2019-05-15T01:26:35.287Z,3.36
2019-05-15T01:29:02.084Z,3.33
2019-05-15T01:31:28.793Z,3.33
2019-05-15T01:33:55.465Z,3.26
2019-05-15T01:36:22.305Z,3.28
2019-05-15T01:38:49.012Z,3.21
2019-05-15T01:41:15.719Z,3.22
2019-05-15T01:43:42.530Z,3.19
2019-05-15T01:46:09.125Z,3.07
2019-05-15T01:48:35.919Z,3.04
2019-05-15T01:51:04.498Z,3.01
2019-05-15T01:53:31.097Z,2.99
2019-05-15T01:55:58.930Z,2.99
2019-05-15T01:58:25.825Z,2.92
2019-05-15T02:00:52.505Z,2.80
2019-05-15T02:03:19.280Z,2.96
2019-05-15T02:05:48.063Z,3.04
2019-05-15T02:08:14.848Z,3.06
2019-05-15T02:10:41.505Z,3.14
2019-05-15T02:13:08.759Z,3.03
2019-05-15T02:15:35.719Z,2.93
2019-05-15T02:18:02.510Z,2.90
2019-05-15T02:20:29.301Z,2.81
2019-05-15T02:22:55.975Z,2.75
2019-05-15T02:25:22.650Z,2.68
2019-05-15T02:27:49.342Z,2.65
2019-05-15T02:30:27.996Z,2.58
2019-05-15T02:32:44.800Z,2.54
2019-05-15T02:35:11.577Z,2.42
2019-05-15T02:37:41.152Z,2.36
2019-05-15T02:40:09.872Z,2.42
2019-05-15T02:42:35.830Z,2.42
2019-05-15T02:45:02.882Z,2.36
2019-05-15T02:47:29.662Z,2.45
2019-05-15T02:49:59.125Z,2.37
2019-05-15T02:52:25.147Z,2.37
2019-05-15T02:54:51.911Z,2.38
2019-05-15T02:57:19.266Z,2.37
2019-05-15T02:59:49.532Z,2.24
2019-05-15T03:02:15.242Z,2.39
2019-05-15T03:04:42.045Z,2.27
2019-05-15T03:07:09.614Z,2.37
2019-05-15T03:09:39.704Z,2.27
2019-05-15T03:12:05.449Z,2.23
2019-05-15T03:14:32.288Z,2.18
2019-05-15T03:16:59.726Z,2.16
2019-05-15T03:19:29.531Z,2.22
2019-05-15T03:21:55.365Z,2.29
2019-05-15T03:24:22.033Z,2.35
2019-05-15T03:26:49.621Z,2.29
2019-05-15T03:29:16.635Z,2.31
2019-05-15T03:32:00.875Z,2.17
2019-05-15T03:34:21.402Z,2.10
2019-05-15T03:36:45.454Z,2.00
2019-05-15T03:39:09.771Z,1.82
2019-05-15T03:41:39.308Z,1.66
2019-05-15T03:44:05.373Z,1.55
2019-05-15T03:46:32.048Z,1.57
2019-05-15T03:49:00.353Z,1.59
2019-05-15T03:51:29.006Z,1.64
2019-05-15T03:53:55.908Z,1.77
2019-05-15T03:56:22.675Z,1.84
2019-05-15T03:58:49.609Z,1.89
2019-05-15T04:01:32.532Z,1.77
2019-05-15T04:03:45.013Z,1.85
2019-05-15T04:06:11.827Z,1.83
2019-05-15T04:08:39.376Z,1.83
2019-05-15T04:11:08.894Z,1.89
2019-05-15T04:13:35.010Z,2.01
2019-05-15T04:16:01.872Z,2.09
2019-05-15T04:18:29.293Z,2.10
2019-05-15T04:20:56.142Z,2.12
2019-05-15T04:23:22.990Z,2.32
2019-05-15T04:25:51.157Z,2.38
2019-05-15T04:28:20.091Z,2.60
2019-05-15T04:30:49.465Z,2.47
2019-05-15T04:33:15.751Z,2.47
2019-05-15T04:35:42.421Z,2.37
2019-05-15T04:38:09.699Z,2.41
2019-05-15T04:40:39.714Z,2.35
2019-05-15T04:43:05.390Z,2.52
2019-05-15T04:45:35.156Z,2.47
2019-05-15T04:48:00.963Z,2.59
2019-05-15T04:50:28.709Z,2.58
2019-05-15T04:52:59.032Z,2.52
2019-05-15T04:55:24.311Z,2.58
2019-05-15T04:57:51.122Z,2.64
2019-05-15T05:00:35.659Z,2.68
2019-05-15T05:03:02.641Z,2.77
2019-05-15T05:05:29.711Z,2.92
2019-05-15T05:07:59.601Z,3.06
2019-05-15T05:10:28.394Z,3.26
2019-05-15T05:12:54.443Z,3.55
2019-05-15T05:15:21.635Z,3.76
2019-05-15T05:17:49.006Z,4.08
2019-05-15T05:20:17.856Z,4.52
2019-05-15T05:22:44.676Z,4.88
2019-05-15T05:25:11.361Z,5.58
2019-05-15T05:27:38.576Z,5.98
2019-05-15T05:30:08.161Z,6.74
2019-05-15T05:32:35.288Z,7.51
2019-05-15T05:35:02.882Z,8.56
2019-05-15T05:37:29.463Z,9.62
2019-05-15T05:39:57.726Z,10.28
2019-05-15T05:42:24.551Z,11.13
2019-05-15T05:44:51.262Z,11.04
2019-05-15T05:47:18.350Z,11.58
2019-05-15T05:50:04.749Z,12.25
2019-05-15T05:52:31.512Z,12.73
2019-05-15T05:54:58.341Z,13.34
2019-05-15T05:57:25.007Z,12.86
2019-05-15T05:59:51.708Z,13.15
2019-05-15T06:02:18.671Z,13.50
2019-05-15T06:04:47.816Z,14.58
2019-05-15T06:07:14.518Z,14.68
2019-05-15T06:09:41.310Z,14.47
2019-05-15T06:12:08.091Z,15.01
2019-05-15T06:14:34.776Z,14.86
2019-05-15T06:17:01.447Z,15.15
2019-05-15T06:19:31.227Z,15.39
2019-05-15T06:22:00.731Z,16.42
2019-05-15T06:24:25.209Z,16.64
2019-05-15T06:26:51.878Z,16.67
2019-05-15T06:29:18.696Z,15.75
2019-05-15T06:31:45.484Z,17.46
2019-05-15T06:34:12.276Z,18.22
2019-05-15T06:36:39.394Z,18.22
2019-05-15T06:39:08.446Z,17.10
2019-05-15T06:41:35.147Z,15.55
2019-05-15T06:44:02.198Z,17.16
2019-05-15T06:46:28.900Z,18.49
2019-05-15T06:48:57.703Z,18.16
2019-05-15T06:51:24.558Z,19.24
2019-05-15T06:53:51.123Z,19.73
2019-05-15T06:56:18.816Z,17.28
2019-05-15T06:58:45.702Z,18.22
2019-05-15T07:01:12.582Z,18.36
2019-05-15T07:03:39.649Z,18.60
2019-05-15T07:06:09.062Z,16.97
2019-05-15T07:08:34.937Z,17.03
2019-05-15T07:11:01.737Z,17.69
2019-05-15T07:13:29.165Z,17.01
2019-05-15T07:15:58.372Z,18.85
2019-05-15T07:18:24.740Z,18.00
2019-05-15T07:20:51.526Z,17.38
2019-05-15T07:23:18.860Z,18.08
2019-05-15T07:25:45.902Z,16.74
2019-05-15T07:28:12.568Z,18.80
2019-05-15T07:30:41.099Z,18.78
2019-05-15T07:33:08.747Z,16.73
2019-05-15T07:35:38.454Z,16.28
2019-05-15T07:38:07.843Z,18.08
2019-05-15T07:40:34.193Z,18.80
2019-05-15T07:43:01.064Z,19.73
2019-05-15T07:45:28.341Z,21.24
2019-05-15T07:47:55.216Z,21.51
2019-05-15T07:50:22.099Z,20.16
2019-05-15T07:52:48.879Z,21.90
2019-05-15T07:55:18.322Z,22.16
2019-05-15T07:57:44.334Z,21.63
2019-05-15T08:00:13.310Z,21.52
2019-05-15T08:02:40.071Z,22.38
2019-05-15T08:05:09.056Z,22.32
2019-05-15T08:07:38.593Z,22.60
2019-05-15T08:10:05.281Z,23.74
2019-05-15T08:12:32.042Z,23.71
2019-05-15T08:14:58.755Z,25.45
2019-05-15T08:17:25.522Z,25.90
2019-05-15T08:19:52.292Z,22.62
2019-05-15T08:22:18.976Z,20.30
2019-05-15T08:24:48.278Z,22.13
2019-05-15T08:27:14.335Z,23.85
2019-05-15T08:29:41.227Z,23.49
2019-05-15T08:32:08.479Z,23.70
2019-05-15T08:34:35.324Z,20.85
2019-05-15T08:37:01.920Z,22.98
2019-05-15T08:39:28.630Z,24.36
2019-05-15T08:41:55.315Z,25.09
2019-05-15T08:44:22.167Z,26.46
2019-05-15T08:46:48.758Z,28.07
2019-05-15T08:49:15.482Z,28.63
2019-05-15T08:51:42.171Z,28.86
2019-05-15T08:54:08.848Z,29.20
2019-05-15T08:56:55.474Z,29.19
2019-05-15T08:59:22.244Z,30.05
2019-05-15T09:01:49.136Z,28.90
2019-05-15T09:04:27.889Z,26.52
2019-05-15T09:06:44.727Z,27.48
2019-05-15T09:09:11.400Z,24.96
2019-05-15T09:11:39.170Z,25.60
2019-05-15T09:14:08.163Z,24.91
2019-05-15T09:16:34.866Z,26.49
2019-05-15T09:19:01.805Z,28.67
2019-05-15T09:21:28.676Z,29.87
2019-05-15T09:23:55.339Z,30.56
2019-05-15T09:26:22.251Z,28.36
2019-05-15T09:28:49.500Z,29.04
2019-05-15T09:31:16.239Z,28.85
2019-05-15T09:33:44.875Z,31.65
2019-05-15T09:36:11.576Z,31.65
2019-05-15T09:38:39.073Z,29.34
2019-05-15T09:41:08.676Z,27.62
2019-05-15T09:43:34.851Z,28.19
2019-05-15T09:46:01.649Z,29.86
2019-05-15T09:48:28.855Z,28.26
2019-05-15T09:50:58.516Z,25.76
2019-05-15T09:53:24.571Z,24.63
2019-05-15T09:55:51.347Z,28.07
2019-05-15T09:58:20.382Z,28.82
2019-05-15T10:00:52.273Z,30.05
2019-05-15T10:03:15.668Z,30.67
2019-05-15T10:05:42.585Z,28.42
2019-05-15T10:08:09.403Z,27.98
2019-05-15T10:10:38.016Z,30.30
2019-05-15T10:13:05.041Z,29.00
2019-05-15T10:15:31.806Z,28.03
2019-05-15T10:17:59.686Z,28.93
2019-05-15T10:20:28.954Z,31.72
2019-05-15T10:22:55.497Z,32.28
2019-05-15T10:25:22.266Z,29.50
2019-05-15T10:27:49.075Z,30.11
2019-05-15T10:30:18.687Z,28.46
2019-05-15T10:32:44.777Z,28.13
2019-05-15T10:35:24.542Z,28.72
2019-05-15T10:37:40.441Z,29.62
2019-05-15T10:40:09.263Z,30.68
2019-05-15T10:42:36.119Z,30.68
2019-05-15T10:45:04.168Z,29.41
2019-05-15T10:47:30.869Z,29.99
2019-05-15T10:49:59.942Z,30.07
2019-05-15T10:52:28.593Z,30.52
2019-05-15T10:54:54.862Z,33.37
2019-05-15T10:57:21.696Z,32.66
2019-05-15T10:59:48.273Z,31.89
2019-05-15T11:02:15.051Z,31.03
2019-05-15T11:04:41.741Z,30.68
2019-05-15T11:07:09.810Z,32.26
2019-05-15T11:09:37.514Z,30.21
2019-05-15T11:12:05.817Z,31.26
2019-05-15T11:14:32.588Z,33.14
2019-05-15T11:16:59.273Z,29.86
2019-05-15T11:19:35.615Z,29.86
2019-05-15T11:21:54.432Z,30.05
2019-05-15T11:24:21.135Z,30.92
2019-05-15T11:26:49.971Z,31.88
2019-05-15T11:29:16.684Z,30.17
2019-05-15T11:31:43.361Z,33.22
2019-05-15T11:34:10.262Z,34.46
2019-05-15T11:36:38.692Z,29.90
2019-05-15T11:39:08.237Z,28.08
2019-05-15T11:41:34.629Z,31.68
2019-05-15T11:44:01.497Z,29.77
2019-05-15T11:46:29.089Z,30.55
2019-05-15T11:48:58.685Z,29.23
2019-05-15T11:51:24.726Z,27.41
2019-05-15T11:53:51.465Z,26.07
2019-05-15T11:56:18.910Z,25.86
2019-05-15T11:58:45.809Z,26.47
2019-05-15T12:01:12.602Z,28.89
2019-05-15T12:03:59.067Z,30.74
2019-05-15T12:06:25.813Z,30.47
2019-05-15T12:08:52.517Z,29.17
2019-05-15T12:11:31.849Z,28.63
2019-05-15T12:13:48.117Z,26.41
2019-05-15T12:16:14.782Z,24.96
2019-05-15T12:18:41.985Z,26.49
2019-05-15T12:21:08.996Z,26.28
2019-05-15T12:23:38.105Z,26.35
2019-05-15T12:26:04.478Z,26.36
2019-05-15T12:28:31.098Z,28.17
2019-05-15T12:30:59.674Z,31.99
2019-05-15T12:33:28.923Z,33.54
2019-05-15T12:35:55.190Z,32.26
2019-05-15T12:38:21.892Z,29.10
2019-05-15T13:00:38.867Z,31.29
2019-05-15T13:03:05.543Z,29.52
2019-05-15T13:05:32.701Z,29.49
2019-05-15T13:07:59.563Z,29.18
2019-05-15T13:10:28.611Z,31.17
2019-05-15T13:13:01.341Z,31.73
2019-05-15T13:15:23.563Z,32.10
2019-05-15T13:17:52.627Z,32.08
2019-05-15T13:20:19.044Z,31.52
2019-05-15T13:25:14.308Z,33.21
2019-05-15T13:27:41.094Z,33.21
2019-05-15T13:30:09.210Z,32.04
2019-05-15T13:32:36.425Z,31.03
2019-05-15T13:35:04.044Z,32.53
2019-05-15T13:37:31.158Z,31.67
2019-05-15T13:39:58.696Z,28.58
2019-05-15T13:42:27.938Z,30.32
2019-05-15T13:44:54.276Z,30.08
2019-05-15T13:47:20.950Z,27.05
2019-05-15T13:49:48.135Z,27.57
2019-05-15T13:52:15.019Z,29.69
2019-05-15T13:54:41.717Z,28.67
2019-05-15T13:57:08.899Z,27.01
2019-05-15T13:59:35.579Z,24.31
2019-05-15T14:02:02.372Z,22.99
2019-05-15T14:04:29.910Z,22.76
2019-05-15T14:06:57.852Z,23.66
2019-05-15T14:09:24.654Z,24.09
2019-05-15T14:11:51.405Z,24.18
2019-05-15T14:14:18.191Z,25.36
2019-05-15T14:16:44.964Z,27.46
2019-05-15T14:19:11.742Z,29.33
2019-05-15T14:21:38.528Z,29.61
2019-05-15T14:24:05.307Z,30.42
2019-05-15T14:26:32.500Z,30.56
2019-05-15T14:28:59.187Z,30.60
2019-05-15T14:31:27.900Z,30.13
2019-05-15T14:33:54.461Z,30.68
2019-05-15T14:36:21.301Z,26.84
2019-05-15T14:38:48.524Z,25.71
2019-05-15T14:41:15.587Z,24.46
2019-05-15T14:43:43.506Z,23.10
2019-05-15T14:46:10.059Z,22.97
2019-05-15T14:48:38.593Z,24.22
2019-05-15T14:51:05.415Z,25.80
2019-05-15T14:53:32.190Z,27.78
2019-05-15T14:56:20.463Z,28.97
2019-05-15T14:58:48.058Z,28.37
2019-05-15T15:01:15.098Z,27.77
2019-05-15T15:03:41.779Z,27.04
2019-05-15T15:06:08.802Z,26.19
2019-05-15T15:08:35.495Z,23.92
2019-05-15T15:11:02.448Z,22.04
2019-05-15T15:13:29.398Z,21.96
2019-05-15T15:15:56.191Z,22.90
2019-05-15T15:20:49.273Z,23.50
2019-05-15T15:23:15.925Z,23.95
2019-05-15T15:25:42.499Z,24.39
2019-05-15T15:28:09.051Z,23.91
2019-05-15T15:30:37.775Z,23.61
2019-05-15T15:33:04.527Z,23.73
2019-05-15T15:35:31.336Z,23.42
2019-05-15T15:37:58.161Z,22.28
2019-05-15T15:40:24.914Z,21.88
2019-05-15T15:42:51.479Z,21.82
2019-05-15T15:45:19.342Z,20.66
2019-05-15T15:47:48.087Z,20.90
2019-05-15T15:50:18.104Z,21.27
2019-05-15T15:52:44.463Z,21.65
2019-05-15T15:55:11.625Z,21.91
2019-05-15T15:57:39.847Z,21.99
2019-05-15T16:00:08.830Z,21.08
2019-05-15T16:02:35.788Z,20.99
2019-05-15T16:05:02.726Z,20.20
2019-05-15T16:07:29.830Z,20.42
2019-05-15T16:09:58.755Z,19.11
2019-05-15T16:12:27.690Z,19.46
2019-05-15T16:14:54.119Z,18.55
2019-05-15T16:17:28.479Z,18.74
2019-05-15T16:19:54.698Z,18.53
2019-05-15T16:22:21.525Z,18.63
2019-05-15T16:25:09.819Z,18.67
2019-05-15T16:27:38.247Z,18.29
2019-05-15T16:30:08.299Z,17.63
2019-05-15T16:32:34.611Z,16.49
2019-05-15T16:35:01.200Z,17.37
2019-05-15T16:37:28.329Z,17.61
2019-05-15T16:39:57.812Z,17.49
2019-05-15T16:42:23.992Z,17.76
2019-05-15T16:44:50.567Z,18.37
2019-05-15T16:47:18.599Z,18.60
2019-05-15T16:49:45.324Z,18.70
2019-05-15T16:52:12.120Z,18.70
2019-05-15T16:54:38.770Z,18.58
2019-05-15T16:57:05.592Z,18.59
2019-05-15T16:59:35.790Z,18.57
2019-05-15T17:02:00.947Z,18.68
2019-05-15T17:04:28.800Z,18.49
2019-05-15T17:06:55.709Z,18.46
2019-05-15T17:09:22.539Z,18.17
2019-05-15T17:11:49.330Z,18.27
2019-05-15T17:14:16.002Z,17.93
2019-05-15T17:16:42.850Z,17.67
2019-05-15T17:19:09.606Z,17.64
2019-05-15T17:21:36.286Z,17.80
2019-05-15T17:24:04.262Z,17.82
2019-05-15T17:26:31.125Z,17.85
2019-05-15T17:28:58.301Z,17.67
2019-05-15T17:31:25.066Z,17.55
2019-05-15T17:33:51.628Z,17.47
2019-05-15T17:36:18.715Z,17.35
2019-05-15T17:38:45.436Z,17.37
2019-05-15T17:41:12.238Z,17.44
2019-05-15T17:43:38.963Z,17.42
2019-05-15T17:46:08.696Z,17.46
2019-05-15T17:48:34.829Z,17.47
2019-05-15T17:51:01.391Z,17.45
2019-05-15T17:53:28.827Z,17.28
2019-05-15T17:55:55.819Z,17.43
2019-05-15T17:58:22.624Z,17.64
2019-05-15T18:00:49.400Z,17.62
2019-05-15T18:03:16.108Z,17.59
2019-05-15T18:05:42.774Z,17.44
2019-05-15T18:08:09.459Z,17.19
2019-05-15T18:10:38.345Z,17.00
2019-05-15T18:13:04.843Z,16.91
2019-05-15T18:15:31.940Z,16.78
2019-05-15T18:17:59.520Z,16.57
2019-05-15T18:20:29.164Z,16.53
2019-05-15T18:22:55.375Z,16.59
2019-05-15T18:25:22.286Z,16.69
2019-05-15T18:27:48.991Z,16.66
2019-05-15T18:30:18.148Z,16.54
2019-05-15T18:32:44.780Z,16.37
2019-05-15T18:35:11.665Z,16.32
2019-05-15T18:37:39.316Z,16.23
2019-05-15T18:40:10.057Z,16.15
2019-05-15T18:42:38.655Z,16.06
2019-05-15T18:45:04.889Z,16.03
2019-05-15T18:47:31.647Z,16.07
2019-05-15T18:50:05.233Z,15.99
2019-05-15T18:52:28.747Z,15.92
2019-05-15T18:54:58.569Z,15.85
2019-05-15T18:57:24.882Z,15.78
2019-05-15T18:59:51.678Z,15.80
2019-05-15T19:02:19.196Z,15.74
2019-05-15T19:04:46.171Z,15.70
2019-05-15T19:07:12.924Z,15.61
2019-05-15T19:09:39.608Z,15.59
2019-05-15T19:12:09.235Z,15.57
2019-05-15T19:14:37.026Z,15.32
2019-05-15T19:17:04.015Z,15.05
2019-05-15T19:19:30.739Z,14.99
2019-05-15T19:21:58.246Z,14.81
2019-05-15T19:24:25.111Z,14.47
2019-05-15T19:26:51.792Z,14.73
2019-05-15T19:29:18.682Z,14.69
2019-05-15T19:31:45.306Z,14.30
2019-05-15T19:34:12.112Z,14.37
2019-05-15T19:36:38.796Z,14.28
2019-05-15T19:39:07.939Z,14.24
2019-05-15T19:41:34.389Z,14.17
2019-05-15T19:44:01.096Z,14.21
2019-05-15T19:46:28.304Z,14.18
2019-05-15T19:48:55.121Z,14.14
2019-05-15T19:51:21.806Z,14.13
2019-05-15T19:53:48.680Z,14.07
2019-05-15T19:56:15.372Z,14.04
2019-05-15T19:58:42.161Z,14.12
2019-05-15T20:01:08.939Z,14.04
2019-05-15T20:03:47.251Z,14.03
2019-05-15T20:06:04.235Z,13.98
2019-05-15T20:08:30.943Z,13.97
2019-05-15T20:10:59.321Z,13.86
2019-05-15T20:13:28.855Z,13.98
2019-05-15T20:15:55.103Z,14.03
2019-05-15T20:18:21.783Z,13.98
2019-05-15T20:20:48.437Z,13.80
2019-05-15T20:23:15.174Z,13.90
2019-05-15T20:25:41.862Z,13.90
2019-05-15T20:28:08.612Z,13.84
2019-05-15T20:30:35.424Z,13.84
2019-05-15T20:33:02.180Z,13.82
2019-05-15T20:35:29.141Z,13.78
2019-05-15T20:37:58.039Z,13.85
2019-05-15T20:40:24.487Z,13.83
2019-05-15T20:42:51.246Z,13.79
2019-05-15T20:45:18.657Z,13.70
2019-05-15T20:47:45.540Z,13.66
2019-05-15T20:50:12.437Z,13.69
2019-05-15T20:52:39.805Z,13.67
2019-05-15T20:55:08.070Z,13.62
2019-05-15T20:57:37.602Z,13.59
2019-05-15T21:00:05.237Z,13.59
2019-05-15T21:02:31.989Z,13.48
2019-05-15T21:05:00.638Z,13.52
2019-05-15T21:07:38.637Z,13.54
2019-05-15T21:09:58.674Z,13.45
2019-05-15T21:12:27.060Z,13.38
2019-05-15T21:14:53.790Z,13.37
2019-05-15T21:17:20.461Z,13.34
2019-05-15T21:19:48.949Z,13.21
2019-05-15T21:22:17.931Z,13.24
2019-05-15T21:24:44.126Z,13.16
2019-05-15T21:27:10.827Z,13.10
2019-05-15T21:29:38.167Z,12.98
2019-05-15T21:32:08.323Z,13.04
2019-05-15T21:34:40.713Z,13.02
2019-05-15T21:37:03.379Z,12.98
2019-05-15T21:39:30.380Z,12.93
2019-05-15T21:41:58.325Z,13.00
2019-05-15T21:44:25.309Z,12.85
2019-05-15T21:46:51.853Z,12.77
2019-05-15T21:49:19.179Z,12.94
2019-05-15T21:51:47.892Z,12.86
2019-05-15T21:54:14.724Z,12.85
2019-05-15T21:56:41.623Z,12.92
2019-05-15T21:59:08.489Z,12.83
2019-05-15T22:01:35.508Z,12.73
2019-05-15T22:04:02.286Z,12.72
2019-05-15T22:06:29.413Z,12.65
2019-05-15T22:08:58.375Z,12.77
2019-05-15T22:11:25.145Z,12.69
2019-05-15T22:13:51.989Z,12.67
2019-05-15T22:16:19.672Z,12.73
2019-05-15T22:18:47.845Z,12.65
2019-05-15T22:21:14.880Z,12.63
2019-05-15T22:23:41.547Z,12.52
2019-05-15T22:26:08.344Z,12.59
2019-05-15T22:28:35.117Z,12.49
2019-05-15T22:31:02.746Z,12.58
2019-05-15T22:33:29.767Z,12.54
2019-05-15T22:35:56.870Z,12.49
2019-05-15T22:38:25.121Z,12.54
2019-05-15T22:40:51.894Z,12.44
2019-05-15T22:43:18.701Z,12.37
2019-05-15T22:45:45.571Z,12.33
2019-05-15T22:48:12.323Z,12.23
2019-05-15T22:50:39.107Z,12.16
2019-05-15T22:53:05.874Z,12.20
2019-05-15T22:55:32.643Z,12.18
2019-05-15T22:58:00.552Z,12.13
2019-05-15T23:00:28.877Z,12.11
2019-05-15T23:02:58.004Z,12.13
2019-05-15T23:05:28.404Z,12.11
2019-05-15T23:07:53.208Z,12.20
2019-05-15T23:10:20.234Z,12.10
2019-05-15T23:12:48.682Z,12.02
2019-05-15T23:15:15.705Z,12.04
2019-05-15T23:17:42.365Z,12.03
2019-05-15T23:20:09.753Z,12.02
2019-05-15T23:22:38.587Z,12.05
2019-05-15T23:25:05.734Z,11.98
2019-05-15T23:27:32.456Z,11.99
2019-05-15T23:29:59.154Z,11.94
2019-05-15T23:32:25.839Z,11.91
2019-05-15T23:34:52.639Z,11.84
2019-05-15T23:37:19.433Z,11.86
2019-05-15T23:39:48.556Z,11.74
2019-05-15T23:42:14.871Z,11.71
2019-05-15T23:44:41.653Z,11.74
2019-05-15T23:47:08.339Z,11.69
2019-05-15T23:49:35.003Z,11.66
2019-05-15T23:52:01.694Z,11.71
2019-05-15T23:54:28.376Z,11.72
2019-05-15T23:56:58.374Z,11.47
2019-05-15T23:59:25.623Z,11.76
